Time;durP1;ratioP1;P1;durP2;ratioP2;P2;SDS_P1;SDS_P2;PMS_P1;PMS_P2;Temp;Humidity;BMP_temperature;BMP_pressure;BME280_temperature;BME280_humidity;BME280_pressure;Samples;Min_cycle;Max_cycle;Signal;HPM_P1;HPM_P2
2023/05/19 00:02:19;;;;;;;8.37;2.70;;;7.70;99.90;8.40;94503.00;;;;7401019;19;21047;-80
2023/05/19 00:04:53;;;;;;;7.33;2.90;;;7.70;99.90;8.40;94483.00;;;;7398506;19;20196;-80
2023/05/19 00:07:37;;;;;;;5.07;2.70;;;7.60;99.90;8.40;94528.00;;;;7401123;19;20153;-81
2023/05/19 00:10:11;;;;;;;8.83;2.87;;;7.60;99.90;8.30;94522.00;;;;7402024;19;20129;-80
2023/05/19 00:12:50;;;;;;;6.57;2.43;;;7.60;99.90;8.20;94528.00;;;;7401927;19;20525;-81
2023/05/19 00:15:24;;;;;;;9.65;2.40;;;7.60;99.90;8.30;94499.00;;;;7402467;19;20138;-80
2023/05/19 00:17:58;;;;;;;6.77;2.87;;;7.60;99.90;8.30;94503.00;;;;7401230;19;20632;-80
2023/05/19 00:20:25;;;;;;;5.80;2.60;;;7.60;99.90;8.20;94512.00;;;;7402334;19;20129;-80
2023/05/19 00:22:52;;;;;;;6.40;2.70;;;7.50;99.90;8.10;94504.00;;;;7401622;19;20155;-81
2023/05/19 00:25:26;;;;;;;8.30;3.23;;;7.50;99.90;8.10;94485.00;;;;7400832;19;20161;-80
2023/05/19 00:28:01;;;;;;;10.23;3.10;;;7.50;99.90;8.00;94483.00;;;;7403183;19;20133;-79
2023/05/19 00:30:34;;;;;;;7.97;2.60;;;7.40;99.90;8.10;94491.00;;;;7400580;19;20607;-80
2023/05/19 00:33:02;;;;;;;7.40;2.40;;;7.40;99.90;8.10;94486.00;;;;7401270;19;20155;-81
2023/05/19 00:35:35;;;;;;;4.50;2.10;;;7.40;99.90;8.20;94490.00;;;;7400987;19;20499;-80
2023/05/19 00:38:09;;;;;;;6.17;2.70;;;7.30;99.90;8.00;94494.00;;;;7401027;19;20157;-80
2023/05/19 00:40:44;;;;;;;5.93;2.77;;;7.30;99.90;8.00;94503.00;;;;7401960;19;20144;-80
2023/05/19 00:43:17;;;;;;;8.93;2.80;;;7.30;99.90;8.00;94503.00;;;;7402297;19;20141;-81
2023/05/19 00:45:45;;;;;;;6.23;2.43;;;7.20;99.90;7.80;94498.00;;;;7400911;19;20175;-81
2023/05/19 00:48:20;;;;;;;9.13;2.83;;;7.20;99.90;8.00;94494.00;;;;7400794;19;20135;-80
2023/05/19 00:51:02;;;;;;;7.90;3.00;;;7.20;99.90;7.90;94506.00;;;;7401176;19;20150;-80
2023/05/19 00:53:34;;;;;;;6.17;3.03;;;7.20;99.90;7.80;94488.00;;;;7399568;19;20133;-81
2023/05/19 00:56:07;;;;;;;8.13;3.33;;;7.20;99.90;7.80;94487.00;;;;7400153;19;20144;-80
2023/05/19 00:58:35;;;;;;;9.33;3.27;;;7.20;99.90;7.90;94500.00;;;;7400502;19;20194;-81
2023/05/19 01:01:10;;;;;;;9.37;2.97;;;7.20;99.90;7.90;94504.00;;;;7393415;19;20195;-78
2023/05/19 01:03:55;;;;;;;5.97;2.80;;;7.10;99.90;7.90;94499.00;;;;7400752;19;20133;-78
2023/05/19 01:06:29;;;;;;;9.87;3.13;;;7.10;99.90;7.80;94414.00;;;;7401556;19;20145;-76
2023/05/19 01:09:03;;;;;;;10.20;3.07;;;7.10;99.90;7.90;94476.00;;;;7401926;19;20485;-76
2023/05/19 01:11:36;;;;;;;8.43;3.17;;;7.00;99.90;7.90;94494.00;;;;7399642;19;20583;-77
2023/05/19 01:14:11;;;;;;;6.20;2.87;;;7.10;99.90;7.90;94484.00;;;;7400362;19;20149;-77
2023/05/19 01:16:49;;;;;;;7.43;2.93;;;7.10;99.90;7.80;94507.00;;;;7402293;19;20125;-77
2023/05/19 01:20:06;;;;;;;7.43;2.60;;;7.10;99.90;7.80;94503.00;;;;7399744;19;20137;-76
2023/05/19 01:23:31;;;;;;;6.60;2.97;;;7.10;99.90;7.70;94479.00;;;;7400432;19;20162;-79
2023/05/19 01:26:53;;;;;;;5.93;3.27;;;7.10;99.90;7.80;94507.00;;;;7400121;19;20144;-78
2023/05/19 01:29:46;;;;;;;8.07;2.67;;;7.10;99.90;7.70;94499.00;;;;7399367;19;20136;-79
2023/05/19 01:32:19;;;;;;;7.93;2.83;;;7.00;99.90;7.70;94486.00;;;;7397243;19;20149;-79
2023/05/19 01:34:55;;;;;;;7.13;3.13;;;7.00;99.90;7.70;94449.00;;;;7401393;19;20128;-77
2023/05/19 01:37:31;;;;;;;9.70;2.63;;;7.00;99.90;7.80;94497.00;;;;7399959;19;20140;-76
2023/05/19 01:39:59;;;;;;;9.07;3.40;;;7.00;99.90;7.80;94496.00;;;;7400573;19;20478;-76
2023/05/19 01:42:36;;;;;;;8.00;3.00;;;7.00;99.90;7.80;94477.00;;;;7397781;19;20163;-76
2023/05/19 01:45:05;;;;;;;9.53;3.20;;;6.90;99.90;7.60;94448.00;;;;7397397;19;20205;-77
2023/05/19 01:47:43;;;;;;;7.70;2.63;;;6.90;99.90;7.50;94501.00;;;;7399514;19;20507;-77
2023/05/19 01:50:18;;;;;;;9.77;2.77;;;6.90;99.90;7.50;94470.00;;;;7399180;19;20148;-77
2023/05/19 01:52:52;;;;;;;10.10;3.03;;;6.80;99.90;7.30;94466.00;;;;7397923;19;20152;-76
2023/05/19 01:55:26;;;;;;;9.03;3.50;;;6.70;99.90;7.20;94462.00;;;;7396647;19;20156;-75
2023/05/19 01:58:29;;;;;;;7.03;2.97;;;6.60;99.90;7.10;94501.00;;;;7399122;19;20208;-76
2023/05/19 02:01:58;;;;;;;8.13;3.10;;;6.60;99.90;7.00;94497.00;;;;7396788;19;20180;-77
2023/05/19 02:05:02;;;;;;;8.77;2.50;;;6.50;99.90;7.00;94504.00;;;;7394564;19;20148;-78
2023/05/19 02:07:43;;;;;;;7.80;3.40;;;6.50;99.90;7.00;94446.00;;;;7398269;19;20129;-77
2023/05/19 02:10:26;;;;;;;6.70;3.10;;;6.30;99.90;7.00;94479.00;;;;7399451;19;20599;-76
2023/05/19 02:12:57;;;;;;;7.80;2.80;;;6.30;1.00;6.90;94500.00;;;;7398821;19;20572;-78
2023/05/19 02:15:40;;;;;;;8.00;3.13;;;6.20;1.00;6.90;94471.00;;;;7398275;19;20481;-78
2023/05/19 02:18:12;;;;;;;13.03;3.27;;;6.20;1.00;7.00;94509.00;;;;7397123;19;20144;-77
2023/05/19 02:20:47;;;;;;;6.30;2.90;;;6.20;1.00;6.90;94503.00;;;;7400251;19;20147;-77
2023/05/19 02:23:14;;;;;;;8.93;3.00;;;6.20;1.00;7.00;94470.00;;;;7398451;19;20485;-77
2023/05/19 02:25:47;;;;;;;8.17;3.20;;;6.20;1.00;7.10;94505.00;;;;7394879;19;20204;-80
2023/05/19 02:28:15;;;;;;;6.20;3.37;;;6.30;1.00;6.90;94508.00;;;;7398654;19;20164;-76
2023/05/19 02:30:48;;;;;;;10.20;3.30;;;6.20;1.00;6.90;94510.00;;;;7398461;19;20129;-78
2023/05/19 02:33:24;;;;;;;7.83;3.70;;;6.20;1.00;6.90;94503.00;;;;7398378;19;20140;-77
2023/05/19 02:35:58;;;;;;;6.20;2.70;;;6.20;1.00;6.90;94458.00;;;;7398026;19;20607;-77
2023/05/19 02:38:32;;;;;;;6.10;3.13;;;6.20;1.00;6.70;94433.00;;;;7397658;19;20128;-76
2023/05/19 02:41:06;;;;;;;9.90;3.00;;;6.10;1.00;6.90;94421.00;;;;7396808;19;20148;-78
2023/05/19 02:43:41;;;;;;;10.67;3.50;;;6.10;1.00;6.90;94458.00;;;;7395752;19;20150;-79
2023/05/19 02:46:08;;;;;;;9.77;3.47;;;6.10;1.00;6.90;94451.00;;;;7397410;19;20177;-77
2023/05/19 02:48:35;;;;;;;13.40;3.73;;;6.10;1.00;7.00;94439.00;;;;7396974;19;20492;-77
2023/05/19 02:51:08;;;;;;;7.47;3.10;;;6.10;1.00;7.00;94444.00;;;;7397366;19;20189;-77
2023/05/19 02:53:42;;;;;;;7.60;2.97;;;6.10;1.00;6.80;94432.00;;;;7397705;19;20144;-77
2023/05/19 02:56:10;;;;;;;6.67;2.80;;;6.00;1.00;6.70;94457.00;;;;7395162;19;20167;-78
2023/05/19 02:58:38;;;;;;;6.43;3.13;;;6.00;1.00;6.80;94486.00;;;;7397740;19;20622;-77
2023/05/19 03:01:25;;;;;;;9.67;3.20;;;5.90;1.00;6.80;94461.00;;;;7392557;19;20634;-78
2023/05/19 03:03:59;;;;;;;9.93;3.50;;;5.90;1.00;6.70;94478.00;;;;7393296;19;20129;-78
2023/05/19 03:06:33;;;;;;;10.57;3.63;;;5.90;1.00;6.80;94455.00;;;;7393922;19;20217;-77
2023/05/19 03:09:00;;;;;;;6.13;3.30;;;6.00;1.00;6.90;94468.00;;;;7393803;19;20478;-77
2023/05/19 03:11:33;;;;;;;10.80;3.73;;;6.00;1.00;7.00;94466.00;;;;7395831;19;20149;-76
2023/05/19 03:14:08;;;;;;;8.27;3.30;;;6.00;1.00;7.00;94445.00;;;;7396745;19;20133;-76
2023/05/19 03:16:41;;;;;;;4.80;2.90;;;6.10;1.00;6.90;94434.00;;;;7398961;19;20151;-76
2023/05/19 03:19:16;;;;;;;9.00;3.50;;;6.20;1.00;6.90;94463.00;;;;7403616;19;20499;-80
2023/05/19 03:21:51;;;;;;;8.67;3.23;;;6.20;1.00;6.90;94440.00;;;;7404702;19;20626;-78
2023/05/19 03:24:19;;;;;;;8.23;3.60;;;6.20;1.00;6.90;94447.00;;;;7403235;19;20216;-78
2023/05/19 03:26:52;;;;;;;4.80;2.90;;;6.20;1.00;6.90;94450.00;;;;7403261;19;20155;-77
2023/05/19 03:29:26;;;;;;;8.07;2.97;;;6.20;1.00;7.00;94461.00;;;;7403809;19;20135;-76
2023/05/19 03:31:54;;;;;;;9.67;3.40;;;6.20;1.00;7.00;94476.00;;;;7403924;19;20216;-77
2023/05/19 03:34:27;;;;;;;5.83;3.50;;;6.30;1.00;7.00;94450.00;;;;7404363;19;20168;-75
2023/05/19 03:36:55;;;;;;;7.37;3.10;;;6.30;1.00;7.00;94456.00;;;;7403814;19;20510;-76
2023/05/19 03:39:28;;;;;;;11.03;3.30;;;6.30;1.00;7.00;94478.00;;;;7403836;19;20168;-77
2023/05/19 03:42:03;;;;;;;6.00;3.13;;;6.30;1.00;7.00;94488.00;;;;7403184;19;20153;-77
2023/05/19 03:44:36;;;;;;;7.67;3.40;;;6.30;1.00;7.00;94442.00;;;;7403048;19;20157;-78
2023/05/19 03:47:04;;;;;;;9.50;3.10;;;6.40;1.00;7.10;94482.00;;;;7402460;19;20153;-76
2023/05/19 03:49:31;;;;;;;5.03;3.10;;;6.40;1.00;7.10;94468.00;;;;7403170;19;20280;-79
2023/05/19 03:52:05;;;;;;;10.60;3.50;;;6.50;1.00;7.10;94482.00;;;;7402770;19;20153;-75
2023/05/19 03:54:32;;;;;;;7.77;3.00;;;6.50;1.00;7.30;94438.00;;;;7404030;19;20200;-76
2023/05/19 03:57:06;;;;;;;12.00;3.97;;;6.50;1.00;7.40;94473.00;;;;7402731;19;20156;-77
2023/05/19 03:59:34;;;;;;;12.60;3.83;;;6.50;1.00;7.30;94441.00;;;;7404085;19;20169;-76
2023/05/19 04:02:20;;;;;;;8.67;3.00;;;6.60;1.00;7.50;94492.00;;;;7400253;19;20259;-78
2023/05/19 04:04:49;;;;;;;7.17;3.60;;;6.60;1.00;7.40;94456.00;;;;7401868;19;20172;-77
2023/05/19 04:07:23;;;;;;;7.27;3.23;;;6.60;1.00;7.30;94485.00;;;;7402512;19;20140;-77
2023/05/19 04:09:50;;;;;;;7.53;3.73;;;6.70;1.00;7.40;94432.00;;;;7404107;19;20129;-77
2023/05/19 04:12:23;;;;;;;8.57;3.57;;;6.70;1.00;7.30;94467.00;;;;7403361;19;20157;-77
2023/05/19 04:14:58;;;;;;;6.63;3.37;;;6.80;1.00;7.40;94474.00;;;;7403127;19;20140;-77
2023/05/19 04:17:31;;;;;;;9.50;3.43;;;6.80;1.00;7.50;94484.00;;;;7403002;19;20144;-79
2023/05/19 04:19:59;;;;;;;11.07;3.20;;;6.80;1.00;7.60;94461.00;;;;7402964;19;20158;-78
2023/05/19 04:22:33;;;;;;;5.03;3.07;;;6.90;1.00;7.60;94483.00;;;;7402568;19;20140;-75
2023/05/19 04:25:07;;;;;;;7.27;3.43;;;6.90;1.00;7.70;94465.00;;;;7400351;19;20157;-76
2023/05/19 04:27:37;;;;;;;13.03;3.60;;;7.00;1.00;7.80;94429.00;;;;7403805;19;20125;-76
2023/05/19 04:30:15;;;;;;;13.43;3.33;;;7.00;1.00;8.00;94450.00;;;;7402730;19;20200;-78
2023/05/19 04:32:56;;;;;;;5.27;3.20;;;7.00;1.00;8.00;94459.00;;;;7403748;19;20200;-77
2023/05/19 04:35:31;;;;;;;8.23;3.47;;;7.10;1.00;8.00;94457.00;;;;7402318;19;20132;-79
2023/05/19 04:37:58;;;;;;;8.73;3.47;;;7.10;1.00;8.10;94446.00;;;;7401817;19;20528;-76
2023/05/19 04:40:32;;;;;;;7.83;3.07;;;7.20;99.90;8.10;94459.00;;;;7400776;19;20158;-77
2023/05/19 04:43:08;;;;;;;9.10;3.73;;;7.20;99.90;8.30;94471.00;;;;7401466;19;20124;-77
2023/05/19 04:45:50;;;;;;;5.57;3.20;;;7.30;99.90;8.40;94455.00;;;;7399782;19;20148;-77
2023/05/19 04:48:17;;;;;;;6.63;3.47;;;7.40;99.90;8.50;94478.00;;;;7400832;19;20135;-78
2023/05/19 04:50:51;;;;;;;8.47;3.70;;;7.50;99.90;8.50;94479.00;;;;7401745;19;20152;-75
2023/05/19 04:53:28;;;;;;;10.20;3.87;;;7.60;99.90;8.60;94474.00;;;;7401192;19;20162;-75
2023/05/19 04:56:02;;;;;;;7.20;3.30;;;7.60;99.90;8.60;94479.00;;;;7400776;19;20513;-77
2023/05/19 04:58:43;;;;;;;5.77;3.20;;;7.70;99.90;8.70;94471.00;;;;7401897;19;20151;-78
2023/05/19 05:01:20;;;;;;;7.23;3.53;;;7.70;99.90;8.70;94475.00;;;;7399753;19;20515;-78
2023/05/19 05:04:01;;;;;;;9.13;3.80;;;7.80;99.90;8.80;94458.00;;;;7402966;19;20133;-79
2023/05/19 05:06:37;;;;;;;8.67;3.30;;;7.90;99.90;8.80;94485.00;;;;7399588;19;20620;-77
2023/05/19 05:09:04;;;;;;;6.07;3.30;;;7.90;99.90;8.90;94462.00;;;;7401423;19;20145;-79
2023/05/19 05:11:38;;;;;;;9.67;3.53;;;8.00;99.90;9.10;94442.00;;;;7401564;19;20464;-79
2023/05/19 05:14:12;;;;;;;7.80;3.60;;;8.00;99.90;9.20;94478.00;;;;7401177;19;20157;-76
2023/05/19 05:16:46;;;;;;;9.37;3.20;;;8.10;99.90;9.20;94450.00;;;;7399936;19;20144;-77
2023/05/19 05:19:14;;;;;;;8.10;3.83;;;8.20;99.90;9.30;94483.00;;;;7398480;19;20156;-77
2023/05/19 05:21:48;;;;;;;10.40;4.07;;;8.30;99.90;9.40;94485.00;;;;7400866;19;20152;-77
2023/05/19 05:24:22;;;;;;;9.63;3.80;;;8.40;99.90;9.50;94482.00;;;;7400233;19;20145;-78
2023/05/19 05:26:50;;;;;;;5.72;3.17;;;8.50;99.90;9.60;94472.00;;;;7398259;19;20790;-77
2023/05/19 05:29:24;;;;;;;9.05;3.40;;;8.60;99.90;9.70;94482.00;;;;7399908;19;20158;-76
2023/05/19 05:31:51;;;;;;;6.68;2.97;;;8.80;99.90;10.00;94483.00;;;;7400873;19;20148;-77
2023/05/19 05:34:26;;;;;;;6.35;3.20;;;8.90;99.90;10.20;94479.00;;;;7400832;19;20448;-75
2023/05/19 05:36:54;;;;;;;10.35;3.28;;;9.00;99.90;10.10;94456.00;;;;7399848;19;20207;-79
2023/05/19 05:39:28;;;;;;;16.02;3.63;;;9.10;99.90;10.30;94423.00;;;;7401411;19;20132;-78
2023/05/19 05:41:55;;;;;;;9.85;3.13;;;9.20;99.90;10.20;94439.00;;;;7401212;19;20698;-76
2023/05/19 05:44:29;;;;;;;6.90;3.15;;;9.20;99.90;10.40;94443.00;;;;7399604;19;20180;-76
2023/05/19 05:46:57;;;;;;;9.80;3.17;;;9.30;99.90;10.70;94448.00;;;;7396209;19;20149;-77
2023/05/19 05:49:31;;;;;;;9.32;3.50;;;9.50;99.90;10.70;94486.00;;;;7397974;19;20128;-78
2023/05/19 05:51:59;;;;;;;7.65;3.20;;;9.60;99.90;10.90;94466.00;;;;7396798;19;20215;-78
2023/05/19 05:54:33;;;;;;;5.85;3.60;;;9.60;93.00;10.70;94499.00;;;;7401017;19;20150;-76
2023/05/19 05:57:01;;;;;;;8.38;3.40;;;9.60;64.10;10.50;94465.00;;;;7399881;19;20125;-77
2023/05/19 05:59:28;;;;;;;6.43;2.92;;;9.60;58.40;10.70;94465.00;;;;7400925;19;20133;-77
2023/05/19 06:02:09;;;;;;;8.73;3.20;;;9.70;72.40;10.90;94464.00;;;;7396230;19;20251;-74
2023/05/19 06:04:50;;;;;;;8.50;3.05;;;9.70;76.00;11.00;94453.00;;;;7399175;19;20146;-75
2023/05/19 06:07:17;;;;;;;6.68;3.10;;;9.70;82.60;11.00;94444.00;;;;7397030;19;20170;-77
2023/05/19 06:09:52;;;;;;;11.75;3.50;;;9.80;90.10;11.30;94484.00;;;;7399908;19;20125;-76
2023/05/19 06:12:19;;;;;;;13.73;3.83;;;9.90;27.90;11.40;94486.00;;;;7398265;19;20137;-78
2023/05/19 06:14:53;;;;;;;7.38;3.40;;;9.90;12.70;11.20;94469.00;;;;7395486;19;20603;-77
2023/05/19 06:17:27;;;;;;;6.53;3.03;;;10.00;99.90;11.40;94450.00;;;;7399608;19;20165;-76
2023/05/19 06:20:05;;;;;;;6.93;3.28;;;10.20;40.60;11.70;94459.00;;;;7395382;19;20204;-77
2023/05/19 06:22:39;;;;;;;6.68;3.20;;;10.30;25.50;11.90;94473.00;;;;7397257;19;20208;-77
2023/05/19 06:25:13;;;;;;;11.20;3.60;;;10.40;64.30;12.10;94465.00;;;;7398303;19;20683;-78
2023/05/19 06:27:40;;;;;;;9.15;3.72;;;10.60;20.40;12.50;94462.00;;;;7396022;19;20141;-74
2023/05/19 06:30:14;;;;;;;10.48;3.67;;;10.70;1.00;12.40;94485.00;;;;7397118;19;20615;-75
2023/05/19 06:32:41;;;;;;;5.82;3.00;;;10.80;1.00;12.50;94448.00;;;;7399932;19;20189;-76
2023/05/19 06:35:15;;;;;;;7.97;3.28;;;10.80;1.00;12.20;94420.00;;;;7397099;19;20212;-76
2023/05/19 06:37:42;;;;;;;8.82;3.30;;;10.70;1.00;12.00;94448.00;;;;7398132;19;20165;-86
2023/05/19 06:40:16;;;;;;;6.40;3.40;;;10.60;1.00;11.90;94467.00;;;;7395703;19;20121;-78
2023/05/19 06:42:43;;;;;;;4.20;3.10;;;10.50;10.20;12.50;94450.00;;;;7398269;19;20145;-76
2023/05/19 06:45:11;;;;;;;7.25;3.55;;;10.70;1.00;13.20;94472.00;;;;7396694;19;20144;-74
2023/05/19 06:47:45;;;;;;;9.30;3.70;;;11.00;1.00;13.30;94456.00;;;;7397938;19;20664;-77
2023/05/19 06:50:12;;;;;;;8.30;3.58;;;11.30;1.00;13.60;94477.00;;;;7392673;19;20500;-76
2023/05/19 06:52:45;;;;;;;12.30;4.20;;;11.50;1.00;13.80;94465.00;;;;7380706;19;20144;-76
2023/05/19 06:55:13;;;;;;;6.55;3.72;;;11.60;1.00;13.80;94477.00;;;;7387557;19;20145;-77
2023/05/19 06:57:46;;;;;;;13.48;3.67;;;11.60;1.00;13.30;94488.00;;;;7391456;19;20177;-76
2023/05/19 07:00:15;;;;;;;6.68;3.08;;;11.40;1.00;13.40;94475.00;;;;7386147;19;20482;-77
2023/05/19 07:02:46;;;;;;;7.38;3.28;;;11.20;1.00;13.00;94459.00;;;;7386374;19;20156;-76
2023/05/19 07:05:20;;;;;;;8.88;3.63;;;11.20;1.00;13.10;94465.00;;;;7389155;19;20157;-76
2023/05/19 07:07:54;;;;;;;7.65;3.42;;;11.30;1.00;13.30;94468.00;;;;7397267;19;20156;-75
2023/05/19 07:10:29;;;;;;;8.15;3.60;;;11.30;1.00;13.20;94496.00;;;;7398267;19;20599;-76
2023/05/19 07:13:03;;;;;;;7.85;3.67;;;11.20;1.00;13.20;94487.00;;;;7395654;19;20129;-76
2023/05/19 07:15:37;;;;;;;11.68;3.45;;;11.30;1.00;13.40;94463.00;;;;7394095;19;20169;-76
2023/05/19 07:18:11;;;;;;;9.20;3.63;;;11.50;1.00;13.50;94480.00;;;;7396966;19;20141;-76
2023/05/19 07:20:38;;;;;;;10.00;3.78;;;11.70;1.00;13.50;94449.00;;;;7394245;19;20169;-77
2023/05/19 07:23:12;;;;;;;9.32;4.03;;;11.80;1.00;13.90;94478.00;;;;7396562;19;20149;-76
2023/05/19 07:25:41;;;;;;;9.68;3.38;;;12.00;1.00;14.00;94477.00;;;;7392379;19;20129;-77
2023/05/19 07:28:08;;;;;;;8.70;3.65;;;12.10;1.00;14.10;94453.00;;;;7394742;19;20212;-76
2023/05/19 07:30:43;;;;;;;7.55;3.42;;;12.30;1.00;14.10;94470.00;;;;7395877;19;20151;-78
2023/05/19 07:33:10;;;;;;;7.57;3.83;;;12.50;1.00;14.60;94448.00;;;;7391479;19;20600;-76
2023/05/19 07:35:45;;;;;;;8.30;3.40;;;12.60;1.00;14.40;94466.00;;;;7394951;19;20154;-76
2023/05/19 07:38:12;;;;;;;9.35;3.55;;;12.70;1.00;14.10;94436.00;;;;7395133;19;20152;-77
2023/05/19 07:40:47;;;;;;;8.50;3.72;;;12.80;1.00;14.20;94464.00;;;;7396410;19;20128;-77
2023/05/19 07:43:21;;;;;;;8.25;3.90;;;12.80;1.00;14.50;94457.00;;;;7393751;19;20133;-75
2023/05/19 07:45:55;;;;;;;11.65;3.60;;;13.00;1.00;14.30;94484.00;;;;7393481;19;20120;-76
2023/05/19 07:48:24;;;;;;;9.30;3.63;;;12.90;1.00;13.80;94474.00;;;;7393832;19;20509;-77
2023/05/19 07:50:52;;;;;;;7.82;4.22;;;13.00;1.00;14.00;94459.00;;;;7395957;19;20137;-77
2023/05/19 07:53:26;;;;;;;8.63;4.60;;;12.80;1.00;14.10;94481.00;;;;7397668;19;20206;-84
2023/05/19 07:56:01;;;;;;;12.25;5.88;;;12.70;1.00;13.90;94469.00;;;;7395223;19;20125;-83
2023/05/19 07:58:28;;;;;;;16.33;7.13;;;12.50;1.00;14.30;94454.00;;;;7393295;19;20490;-76
2023/05/19 08:00:57;;;;;;;11.23;5.80;;;12.70;1.00;14.90;94422.00;;;;7393895;19;20148;-76
2023/05/19 08:03:37;;;;;;;11.73;5.35;;;13.10;1.00;15.50;94443.00;;;;7392199;19;20191;-76
2023/05/19 08:06:18;;;;;;;8.88;3.95;;;13.60;1.00;15.80;94434.00;;;;7402173;19;20163;-77
2023/05/19 08:08:53;;;;;;;6.28;4.10;;;13.80;1.00;15.80;94459.00;;;;7400377;19;20187;-76
2023/05/19 08:11:20;;;;;;;20.35;3.63;;;13.80;1.00;14.90;94455.00;;;;7403853;19;20631;-77
2023/05/19 08:13:54;;;;;;;7.88;3.83;;;13.50;1.00;13.90;94422.00;;;;7404120;19;20139;-75
2023/05/19 08:16:28;;;;;;;11.02;4.00;;;13.00;1.00;13.70;94445.00;;;;7404198;19;20504;-75
2023/05/19 08:19:04;;;;;;;9.27;3.38;;;12.70;1.00;13.50;94418.00;;;;7403269;19;20143;-78
2023/05/19 08:21:38;;;;;;;7.50;3.30;;;12.40;1.00;13.40;94471.00;;;;7401615;19;20145;-74
2023/05/19 08:24:12;;;;;;;6.57;3.28;;;12.40;1.00;13.50;94476.00;;;;7402275;19;20136;-77
2023/05/19 08:26:46;;;;;;;7.95;3.40;;;12.40;1.00;13.60;94445.00;;;;7399964;19;20612;-76
2023/05/19 08:29:20;;;;;;;6.93;3.72;;;12.50;1.00;13.60;94471.00;;;;7402461;19;20492;-76
2023/05/19 08:31:47;;;;;;;8.30;3.50;;;12.60;1.00;13.70;94456.00;;;;7402307;19;20135;-76
2023/05/19 08:34:21;;;;;;;8.50;3.92;;;12.50;1.00;13.50;94457.00;;;;7402413;19;20129;-75
2023/05/19 08:36:48;;;;;;;11.88;5.80;;;12.40;1.00;13.20;94465.00;;;;7401217;19;20140;-75
2023/05/19 08:39:25;;;;;;;10.65;3.90;;;12.20;1.00;13.60;94464.00;;;;7401279;19;20137;-75
2023/05/19 08:42:01;;;;;;;9.70;3.60;;;12.20;1.00;13.80;94458.00;;;;7398830;19;20145;-75
2023/05/19 08:44:29;;;;;;;9.45;3.35;;;12.40;1.00;13.90;94439.00;;;;7400402;19;20125;-76
2023/05/19 08:47:02;;;;;;;5.50;3.47;;;12.40;1.00;13.90;94391.00;;;;7400685;19;20565;-75
2023/05/19 08:49:49;;;;;;;9.73;3.47;;;12.50;1.00;14.00;94461.00;;;;7398486;19;20169;-77
2023/05/19 08:52:36;;;;;;;8.88;3.40;;;12.70;1.00;13.80;94458.00;;;;7401705;19;20184;-76
2023/05/19 08:55:41;;;;;;;6.10;2.90;;;12.80;1.00;13.90;94464.00;;;;7400604;19;20222;-78
2023/05/19 08:58:10;;;;;;;5.53;3.33;;;12.80;1.00;14.10;94463.00;;;;7399368;19;20576;-76
2023/05/19 09:00:44;;;;;;;8.00;3.22;;;13.00;1.00;14.20;94448.00;;;;7398842;19;20603;-76
2023/05/19 09:03:27;;;;;;;6.07;3.35;;;13.00;1.00;14.00;94458.00;;;;7395324;19;20183;-75
2023/05/19 09:06:01;;;;;;;8.77;3.70;;;13.00;1.00;14.20;94457.00;;;;7397971;19;20151;-77
2023/05/19 09:08:36;;;;;;;9.02;3.63;;;13.00;1.00;14.20;94456.00;;;;7399836;19;20600;-76
2023/05/19 09:11:04;;;;;;;9.27;3.67;;;13.10;1.00;14.20;94452.00;;;;7401334;19;20120;-77
2023/05/19 09:13:39;;;;;;;8.80;3.90;;;13.10;1.00;14.30;94460.00;;;;7401745;19;20591;-77
2023/05/19 09:16:13;;;;;;;7.03;3.58;;;13.20;1.00;14.90;94443.00;;;;7399871;19;20129;-75
2023/05/19 09:18:56;;;;;;;7.85;3.50;;;13.50;1.00;15.40;94437.00;;;;7394417;19;20141;-77
2023/05/19 09:21:32;;;;;;;8.13;3.42;;;14.00;1.00;15.70;94445.00;;;;7398739;19;20587;-75
2023/05/19 09:24:08;;;;;;;8.23;3.53;;;14.40;1.00;16.30;94422.00;;;;7394616;19;20504;-75
2023/05/19 09:26:38;;;;;;;7.00;3.28;;;14.80;1.00;15.80;94446.00;;;;7398816;19;20149;-76
2023/05/19 09:29:16;;;;;;;6.80;3.33;;;14.90;1.00;16.00;94414.00;;;;7396945;19;20182;-76
2023/05/19 09:31:53;;;;;;;8.60;3.90;;;15.10;1.00;16.10;94444.00;;;;7399034;19;20680;-76
2023/05/19 09:34:27;;;;;;;11.27;3.40;;;15.10;1.00;16.20;94401.00;;;;7398094;19;20140;-77
2023/05/19 09:37:01;;;;;;;8.05;3.20;;;15.10;1.00;16.10;94450.00;;;;7395020;19;20186;-76
2023/05/19 09:39:35;;;;;;;8.23;3.53;;;15.10;1.00;16.10;94433.00;;;;7397337;19;20135;-76
2023/05/19 09:42:08;;;;;;;7.72;3.45;;;15.20;1.00;15.00;94446.00;;;;7395082;19;20204;-78
2023/05/19 09:44:42;;;;;;;8.93;3.35;;;15.10;1.00;15.90;94438.00;;;;7397447;19;20139;-77
2023/05/19 09:47:10;;;;;;;12.43;3.20;;;15.00;1.00;15.90;94437.00;;;;7391777;19;20164;-76
2023/05/19 09:49:46;;;;;;;12.57;3.35;;;14.80;1.00;15.20;94442.00;;;;7395559;19;20144;-77
2023/05/19 09:52:20;;;;;;;6.65;3.33;;;14.70;1.00;15.40;94428.00;;;;7399549;19;20140;-76
2023/05/19 09:54:55;;;;;;;5.50;3.42;;;14.80;1.00;15.60;94399.00;;;;7398180;19;20600;-76
2023/05/19 09:57:36;;;;;;;7.25;3.20;;;15.10;1.00;15.90;94436.00;;;;7396480;19;20165;-75
2023/05/19 10:00:13;;;;;;;6.78;3.38;;;15.30;1.00;15.70;94413.00;;;;7398772;19;20663;-77
2023/05/19 10:03:01;;;;;;;8.82;3.20;;;15.30;1.00;15.90;94432.00;;;;7396219;19;20152;-78
2023/05/19 10:05:30;;;;;;;6.63;3.58;;;15.10;1.00;15.30;94410.00;;;;7396770;19;20148;-76
2023/05/19 10:08:09;;;;;;;7.20;3.15;;;14.90;1.00;15.50;94415.00;;;;7396310;19;20478;-75
2023/05/19 10:10:46;;;;;;;7.50;3.30;;;14.70;1.00;15.40;94434.00;;;;7394001;19;20184;-76
2023/05/19 10:13:21;;;;;;;10.57;3.10;;;14.70;1.00;14.70;94426.00;;;;7395925;19;20572;-78
2023/05/19 10:15:57;;;;;;;7.38;2.90;;;14.50;1.00;15.10;94423.00;;;;7398306;19;20120;-77
2023/05/19 10:18:33;;;;;;;6.20;2.72;;;14.40;1.00;15.00;94425.00;;;;7399953;19;20140;-75
2023/05/19 10:21:02;;;;;;;4.72;2.40;;;14.30;1.00;15.10;94428.00;;;;7400984;19;20503;-77
2023/05/19 10:23:37;;;;;;;6.85;3.63;;;14.30;1.00;14.90;94426.00;;;;7397035;19;20148;-78
2023/05/19 10:26:11;;;;;;;8.00;3.63;;;14.30;1.00;15.00;94441.00;;;;7393147;19;20125;-78
2023/05/19 10:28:47;;;;;;;7.78;3.05;;;14.10;1.00;15.20;94439.00;;;;7396416;19;20475;-74
2023/05/19 10:31:22;;;;;;;5.95;3.08;;;14.10;1.00;15.70;94436.00;;;;7376236;19;20148;-74
2023/05/19 10:34:20;;;;;;;8.75;3.28;;;14.30;1.00;15.90;94425.00;;;;7397377;19;20169;-76
2023/05/19 10:37:21;;;;;;;5.50;2.47;;;14.70;1.00;16.30;94420.00;;;;7396111;19;20148;-77
2023/05/19 10:39:57;;;;;;;6.18;2.90;;;14.80;1.00;16.50;94409.00;;;;7398666;19;20138;-77
2023/05/19 10:42:47;;;;;;;7.00;2.50;;;15.10;1.00;16.10;94435.00;;;;7392390;19;20124;-77
2023/05/19 10:45:27;;;;;;;7.10;2.58;;;15.20;1.00;15.90;94441.00;;;;7395796;19;20159;-72
2023/05/19 10:48:01;;;;;;;5.38;3.17;;;15.10;1.00;15.50;94407.00;;;;7396294;19;20293;-74
2023/05/19 10:50:38;;;;;;;5.13;2.88;;;14.80;1.00;15.70;94414.00;;;;7398189;19;20152;-73
2023/05/19 10:53:16;;;;;;;7.15;3.13;;;14.70;1.00;15.10;94419.00;;;;7399099;19;20128;-73
2023/05/19 10:55:58;;;;;;;5.57;2.58;;;14.80;1.00;15.10;94435.00;;;;7396284;19;20136;-73
2023/05/19 10:58:44;;;;;;;5.90;2.83;;;14.70;1.00;15.20;94432.00;;;;7392424;19;20131;-75
2023/05/19 11:01:23;;;;;;;4.68;2.67;;;14.90;1.00;15.50;94438.00;;;;7387559;19;20176;-72
2023/05/19 11:04:04;;;;;;;6.80;2.90;;;15.00;1.00;15.60;94437.00;;;;7389318;19;20152;-72
2023/05/19 11:06:44;;;;;;;9.73;3.05;;;15.20;1.00;15.70;94420.00;;;;7390619;19;20129;-71
2023/05/19 11:09:19;;;;;;;7.80;2.63;;;14.90;1.00;14.80;94448.00;;;;7390576;19;20200;-74
2023/05/19 11:12:09;;;;;;;4.03;2.70;;;14.50;1.00;15.00;94419.00;;;;7390898;19;20592;-73
2023/05/19 11:14:36;;;;;;;5.80;2.30;;;14.30;1.00;15.20;94440.00;;;;7390961;19;20564;-71
2023/05/19 11:17:14;;;;;;;4.40;2.40;;;14.20;1.00;14.90;94447.00;;;;7389082;19;20120;-73
2023/05/19 11:19:56;;;;;;;3.72;2.60;;;14.10;1.00;14.40;94446.00;;;;7388994;19;20172;-72
2023/05/19 11:22:32;;;;;;;5.85;2.90;;;13.90;1.00;14.20;94427.00;;;;7392124;19;20128;-71
2023/05/19 11:25:11;;;;;;;4.10;2.85;;;13.70;1.00;14.20;94457.00;;;;7389855;19;20152;-75
2023/05/19 11:27:39;;;;;;;4.72;2.47;;;13.70;1.00;14.00;94439.00;;;;7388529;19;20160;-72
2023/05/19 11:30:13;;;;;;;8.02;2.53;;;13.30;1.00;13.70;94434.00;;;;7390129;19;20467;-72
2023/05/19 11:32:47;;;;;;;6.63;2.60;;;13.10;1.00;13.60;94434.00;;;;7389877;19;20140;-72
2023/05/19 11:35:22;;;;;;;4.35;3.10;;;13.00;1.00;13.60;94435.00;;;;7389058;19;20482;-71
2023/05/19 11:37:56;;;;;;;5.53;3.10;;;13.00;1.00;13.70;94438.00;;;;7389966;19;20179;-73
2023/05/19 11:40:25;;;;;;;8.57;3.53;;;12.90;1.00;13.90;94416.00;;;;7393969;19;20163;-72